Time;durP1;ratioP1;P1;durP2;ratioP2;P2;SDS_P1;SDS_P2;PMS_P1;PMS_P2;Temp;Humidity;BMP_temperature;BMP_pressure;BME280_temperature;BME280_humidity;BME280_pressure;Samples;Min_cycle;Max_cycle;Signal;HPM_P1;HPM_P2
2022/02/20 00:01:03;;;;;;;5.35;1.65;;;;;;;;;;5046338;28;20037;-63
2022/02/20 00:03:29;;;;;;;6.43;1.88;;;;;;;;;;5031636;28;20028;-62
2022/02/20 00:05:55;;;;;;;6.65;1.50;;;;;;;;;;5041195;28;20078;-63
2022/02/20 00:08:21;;;;;;;4.50;1.40;;;;;;;;;;5034179;28;20022;-63
2022/02/20 00:10:47;;;;;;;4.65;1.30;;;;;;;;;;5032477;28;20048;-63
2022/02/20 00:13:13;;;;;;;5.10;1.40;;;;;;;;;;5032389;28;20052;-63
2022/02/20 00:15:39;;;;;;;4.55;1.50;;;;;;;;;;5032397;28;20028;-63
2022/02/20 00:18:05;;;;;;;4.32;1.55;;;;;;;;;;5037580;28;20027;-63
2022/02/20 00:20:31;;;;;;;9.52;1.90;;;;;;;;;;5041219;28;20041;-63
2022/02/20 00:23:00;;;;;;;3.85;1.20;;;;;;;;;;5033493;28;20436;-63
2022/02/20 00:25:31;;;;;;;2.92;1.25;;;;;;;;;;5032417;28;20053;-63
2022/02/20 00:27:57;;;;;;;3.58;1.20;;;;;;;;;;5032147;28;20027;-63
2022/02/20 00:30:24;;;;;;;3.92;1.60;;;;;;;;;;5045178;28;20017;-63
2022/02/20 00:32:50;;;;;;;4.82;1.50;;;;;;;;;;5052069;28;20025;-63
2022/02/20 00:35:16;;;;;;;4.38;1.40;;;;;;;;;;5051710;28;20511;-63
2022/02/20 00:37:42;;;;;;;5.05;1.58;;;;;;;;;;5051695;28;20024;-63
2022/02/20 00:40:08;;;;;;;6.47;1.60;;;;;;;;;;5051317;28;20101;-63
2022/02/20 00:42:34;;;;;;;5.93;1.60;;;;;;;;;;5051842;28;20060;-63
2022/02/20 00:45:00;;;;;;;3.95;1.48;;;;;;;;;;5049780;28;20032;-63
2022/02/20 00:47:26;;;;;;;9.82;1.65;;;;;;;;;;5042478;28;20086;-63
2022/02/20 00:49:52;;;;;;;5.30;1.63;;;;;;;;;;5051502;28;20021;-63
2022/02/20 00:52:18;;;;;;;4.35;1.25;;;;;;;;;;5051550;28;20039;-63
2022/02/20 00:54:45;;;;;;;3.42;1.20;;;;;;;;;;5051568;28;20059;-63
2022/02/20 00:57:11;;;;;;;4.38;1.30;;;;;;;;;;5051858;28;20064;-63
2022/02/20 00:59:37;;;;;;;3.42;1.33;;;;;;;;;;5051214;28;20024;-63
2022/02/20 01:02:03;;;;;;;3.50;1.40;;;;;;;;;;5051265;28;20503;-63
2022/02/20 01:04:29;;;;;;;4.53;1.60;;;;;;;;;;5051610;28;20021;-63
2022/02/20 01:06:55;;;;;;;8.55;1.65;;;;;;;;;;5051567;28;20478;-63
2022/02/20 01:09:22;;;;;;;5.78;1.60;;;;;;;;;;5035757;28;20037;-63
2022/02/20 01:11:48;;;;;;;3.80;1.45;;;;;;;;;;5031299;28;20499;-63
2022/02/20 01:14:14;;;;;;;7.53;1.90;;;;;;;;;;5031642;28;20022;-63
2022/02/20 01:16:40;;;;;;;5.65;1.77;;;;;;;;;;5031649;28;20025;-63
2022/02/20 01:19:06;;;;;;;5.95;1.73;;;;;;;;;;5032573;28;20025;-63
2022/02/20 01:21:32;;;;;;;5.18;1.73;;;;;;;;;;5035676;28;20037;-63
2022/02/20 01:23:58;;;;;;;5.30;1.80;;;;;;;;;;5035895;28;20105;-63
2022/02/20 01:26:24;;;;;;;11.00;1.60;;;;;;;;;;5035626;28;20026;-63
2022/02/20 01:28:50;;;;;;;7.43;1.98;;;;;;;;;;5035601;28;20087;-62
2022/02/20 01:31:17;;;;;;;4.95;1.63;;;;;;;;;;5035778;28;20380;-63
2022/02/20 01:33:43;;;;;;;4.20;1.60;;;;;;;;;;5035339;28;20027;-63
2022/02/20 01:36:09;;;;;;;3.95;1.55;;;;;;;;;;5035418;28;20053;-63
2022/02/20 01:38:35;;;;;;;5.22;1.80;;;;;;;;;;5035401;28;20018;-62
2022/02/20 01:41:01;;;;;;;4.20;1.50;;;;;;;;;;5035299;28;20102;-63
2022/02/20 01:43:27;;;;;;;4.93;1.80;;;;;;;;;;5035362;28;20104;-63
2022/02/20 01:45:56;;;;;;;4.47;1.30;;;;;;;;;;5035100;28;20032;-62
2022/02/20 01:48:22;;;;;;;4.80;1.65;;;;;;;;;;5035253;28;20028;-65
2022/02/20 01:50:48;;;;;;;3.95;1.40;;;;;;;;;;5035188;28;20462;-63
2022/02/20 01:53:15;;;;;;;6.75;1.50;;;;;;;;;;5035096;28;20052;-63
2022/02/20 01:55:41;;;;;;;3.58;1.30;;;;;;;;;;5034830;28;20025;-63
2022/02/20 01:58:07;;;;;;;5.10;1.67;;;;;;;;;;5034891;28;20079;-63
2022/02/20 02:00:34;;;;;;;2.85;1.25;;;;;;;;;;5034606;28;20036;-63
2022/02/20 02:03:00;;;;;;;4.50;2.08;;;;;;;;;;5034586;28;20022;-63
2022/02/20 02:05:27;;;;;;;4.82;1.42;;;;;;;;;;5034509;28;20036;-63
2022/02/20 02:07:53;;;;;;;6.28;1.50;;;;;;;;;;5037961;28;20024;-63
2022/02/20 02:10:19;;;;;;;5.18;1.58;;;;;;;;;;5054549;28;20028;-63
2022/02/20 02:12:45;;;;;;;6.30;1.67;;;;;;;;;;5053320;28;20041;-63
2022/02/20 02:15:12;;;;;;;9.23;1.77;;;;;;;;;;5054512;28;20477;-63
2022/02/20 02:17:38;;;;;;;4.20;1.30;;;;;;;;;;5054219;28;20017;-63
2022/02/20 02:20:06;;;;;;;5.03;1.73;;;;;;;;;;5054350;28;20082;-63
2022/02/20 02:22:32;;;;;;;4.53;1.60;;;;;;;;;;5054198;28;20036;-63
2022/02/20 02:24:58;;;;;;;5.78;1.70;;;;;;;;;;5054243;28;20058;-63
2022/02/20 02:27:25;;;;;;;3.33;1.40;;;;;;;;;;5054292;28;20027;-64
2022/02/20 02:29:51;;;;;;;4.43;1.40;;;;;;;;;;5054072;28;20033;-63
2022/02/20 02:32:18;;;;;;;4.13;1.40;;;;;;;;;;5053151;28;20024;-64
2022/02/20 02:34:45;;;;;;;2.80;1.27;;;;;;;;;;5053952;28;20021;-63
2022/02/20 02:37:11;;;;;;;2.83;1.15;;;;;;;;;;5053882;28;20124;-63
2022/02/20 02:39:38;;;;;;;6.25;1.88;;;;;;;;;;5053524;28;20432;-63
2022/02/20 02:42:04;;;;;;;3.78;1.60;;;;;;;;;;5053886;28;20061;-63
2022/02/20 02:44:30;;;;;;;4.38;1.50;;;;;;;;;;5053859;28;20021;-63
2022/02/20 02:46:56;;;;;;;4.65;1.60;;;;;;;;;;5053797;28;20029;-63
2022/02/20 02:49:23;;;;;;;3.42;1.42;;;;;;;;;;5035660;28;20059;-63
2022/02/20 02:51:49;;;;;;;3.70;1.45;;;;;;;;;;5053392;28;20029;-63
2022/02/20 02:54:18;;;;;;;3.53;1.33;;;;;;;;;;5050830;28;20018;-63
2022/02/20 02:56:48;;;;;;;4.45;1.73;;;;;;;;;;5033638;28;20021;-64
2022/02/20 02:59:15;;;;;;;4.60;1.67;;;;;;;;;;5033636;28;20404;-63
2022/02/20 03:01:41;;;;;;;3.40;1.50;;;;;;;;;;5048762;28;20033;-63
2022/02/20 03:04:07;;;;;;;5.00;1.60;;;;;;;;;;5054091;28;20044;-63
2022/02/20 03:06:34;;;;;;;5.00;1.95;;;;;;;;;;5054011;28;20021;-64
2022/02/20 03:09:00;;;;;;;8.45;1.77;;;;;;;;;;5053865;28;20100;-64
2022/02/20 03:11:26;;;;;;;4.05;1.52;;;;;;;;;;5053855;28;20028;-62
2022/02/20 03:13:53;;;;;;;4.70;1.60;;;;;;;;;;5035809;28;20369;-63
2022/02/20 03:16:19;;;;;;;4.65;1.50;;;;;;;;;;5054115;28;20029;-63
2022/02/20 03:18:45;;;;;;;4.53;1.70;;;;;;;;;;5053816;28;20025;-63
2022/02/20 03:21:11;;;;;;;5.22;1.70;;;;;;;;;;5054048;28;20036;-63
2022/02/20 03:23:37;;;;;;;4.25;1.40;;;;;;;;;;5053781;28;20036;-63
2022/02/20 03:26:03;;;;;;;4.47;1.80;;;;;;;;;;5053785;28;20056;-63
2022/02/20 03:28:29;;;;;;;6.20;1.50;;;;;;;;;;5053467;28;20029;-64
2022/02/20 03:30:55;;;;;;;7.75;1.90;;;;;;;;;;5053593;28;20021;-64
2022/02/20 03:33:22;;;;;;;3.80;1.58;;;;;;;;;;5053544;28;20021;-63
2022/02/20 03:35:48;;;;;;;4.60;1.58;;;;;;;;;;5053572;28;20464;-63
2022/02/20 03:38:14;;;;;;;5.97;1.88;;;;;;;;;;5053627;28;20037;-63
2022/02/20 03:40:40;;;;;;;5.70;1.83;;;;;;;;;;5053347;28;20108;-63
2022/02/20 03:43:07;;;;;;;4.22;1.40;;;;;;;;;;5034673;28;20055;-63
2022/02/20 03:45:33;;;;;;;3.65;1.30;;;;;;;;;;5053371;28;20558;-63
2022/02/20 03:47:59;;;;;;;5.40;1.50;;;;;;;;;;5053378;28;20392;-63
2022/02/20 03:50:26;;;;;;;4.82;1.67;;;;;;;;;;5053158;28;20021;-63
2022/02/20 03:52:53;;;;;;;5.47;1.98;;;;;;;;;;5052766;28;20471;-64
2022/02/20 03:55:19;;;;;;;3.78;1.58;;;;;;;;;;5052726;28;20044;-63
2022/02/20 03:57:45;;;;;;;4.32;1.67;;;;;;;;;;5034805;28;20032;-64
2022/02/20 04:00:24;;;;;;;5.40;1.95;;;;;;;;;;5052636;28;20021;-63
2022/02/20 04:02:50;;;;;;;3.85;1.30;;;;;;;;;;5052582;28;20039;-63
2022/02/20 04:05:18;;;;;;;4.63;1.65;;;;;;;;;;5052779;28;20028;-63
2022/02/20 04:07:44;;;;;;;4.00;1.70;;;;;;;;;;5052584;28;20104;-64
2022/02/20 04:10:11;;;;;;;4.45;1.58;;;;;;;;;;5052774;28;20031;-63
2022/02/20 04:12:37;;;;;;;2.83;1.20;;;;;;;;;;5052623;28;20049;-63
2022/02/20 04:15:06;;;;;;;4.40;1.65;;;;;;;;;;5052737;28;20032;-64
2022/02/20 04:17:38;;;;;;;5.68;1.80;;;;;;;;;;5052574;28;20017;-63
2022/02/20 04:20:04;;;;;;;4.20;1.30;;;;;;;;;;5052612;28;20017;-63
2022/02/20 04:22:30;;;;;;;3.72;1.50;;;;;;;;;;5052819;28;20075;-63
2022/02/20 04:24:56;;;;;;;4.88;1.75;;;;;;;;;;5052650;28;20028;-63
2022/02/20 04:27:22;;;;;;;6.80;1.70;;;;;;;;;;5052904;28;20104;-63
2022/02/20 04:29:49;;;;;;;5.00;1.60;;;;;;;;;;5052742;28;20025;-63
2022/02/20 04:32:15;;;;;;;4.70;2.00;;;;;;;;;;5052648;28;20025;-63
2022/02/20 04:34:41;;;;;;;4.28;1.63;;;;;;;;;;5052812;28;20029;-63
2022/02/20 04:37:07;;;;;;;4.07;1.23;;;;;;;;;;5034472;28;20090;-63
2022/02/20 04:39:33;;;;;;;4.32;1.58;;;;;;;;;;5052213;28;20077;-63
2022/02/20 04:41:59;;;;;;;4.63;1.60;;;;;;;;;;5034553;28;20040;-63
2022/02/20 04:44:26;;;;;;;4.65;1.40;;;;;;;;;;5052501;28;20017;-63
2022/02/20 04:46:52;;;;;;;3.75;1.67;;;;;;;;;;5052279;28;20032;-64
2022/02/20 04:49:18;;;;;;;3.50;1.40;;;;;;;;;;5052238;28;20021;-63
2022/02/20 04:51:44;;;;;;;4.50;1.67;;;;;;;;;;5052126;28;20403;-63
2022/02/20 04:54:10;;;;;;;3.13;1.40;;;;;;;;;;5051769;28;20060;-64
2022/02/20 04:56:37;;;;;;;2.97;1.15;;;;;;;;;;5052084;28;20021;-63
2022/02/20 04:59:03;;;;;;;2.58;1.15;;;;;;;;;;5034318;28;20032;-63
2022/02/20 05:01:29;;;;;;;6.22;1.90;;;;;;;;;;5032988;28;20037;-63
2022/02/20 05:03:55;;;;;;;3.55;1.50;;;;;;;;;;5052001;28;20025;-63
2022/02/20 05:06:27;;;;;;;3.97;1.40;;;;;;;;;;5051904;28;20100;-63
2022/02/20 05:08:54;;;;;;;4.60;1.30;;;;;;;;;;5052069;28;20024;-63
2022/02/20 05:11:20;;;;;;;4.45;1.63;;;;;;;;;;5051774;28;20079;-63
2022/02/20 05:13:46;;;;;;;3.75;1.50;;;;;;;;;;5051560;28;20373;-63
2022/02/20 05:16:12;;;;;;;3.50;1.35;;;;;;;;;;5052050;28;20035;-63
2022/02/20 05:18:38;;;;;;;4.60;1.70;;;;;;;;;;5051856;28;20013;-63
2022/02/20 05:21:07;;;;;;;3.78;1.55;;;;;;;;;;5051785;28;20146;-62
2022/02/20 05:23:33;;;;;;;5.70;1.20;;;;;;;;;;5051871;28;20445;-63
2022/02/20 05:26:00;;;;;;;3.95;1.48;;;;;;;;;;5051581;28;20047;-63
2022/02/20 05:28:26;;;;;;;5.55;1.77;;;;;;;;;;5051859;28;20033;-63
2022/02/20 05:30:52;;;;;;;3.33;1.42;;;;;;;;;;5052203;28;20024;-64
2022/02/20 05:33:18;;;;;;;3.70;1.30;;;;;;;;;;5052673;28;20040;-64
2022/02/20 05:35:44;;;;;;;4.03;1.40;;;;;;;;;;5051949;28;20226;-63
2022/02/20 05:38:11;;;;;;;5.57;1.75;;;;;;;;;;5051797;28;20369;-63
2022/02/20 05:40:38;;;;;;;5.40;1.90;;;;;;;;;;5052027;28;20036;-63
2022/02/20 05:43:04;;;;;;;4.13;1.52;;;;;;;;;;5051641;28;20018;-65
2022/02/20 05:45:31;;;;;;;4.72;1.17;;;;;;;;;;5051714;28;20032;-62
2022/02/20 05:47:57;;;;;;;3.42;1.10;;;;;;;;;;5033701;28;20027;-63
2022/02/20 05:50:23;;;;;;;3.50;1.40;;;;;;;;;;5051455;28;20052;-63
2022/02/20 05:52:49;;;;;;;6.45;1.27;;;;;;;;;;5033823;28;20061;-63
2022/02/20 05:55:15;;;;;;;3.13;1.20;;;;;;;;;;5051763;28;20025;-63
2022/02/20 05:57:48;;;;;;;2.85;1.05;;;;;;;;;;5051524;28;20025;-63
2022/02/20 06:00:16;;;;;;;4.18;1.52;;;;;;;;;;5033295;28;20025;-62
2022/02/20 06:02:42;;;;;;;4.05;1.40;;;;;;;;;;5051278;28;20566;-63
2022/02/20 06:05:09;;;;;;;3.85;1.45;;;;;;;;;;5051578;28;20056;-62
2022/02/20 06:07:37;;;;;;;4.72;1.40;;;;;;;;;;5054751;28;20445;-63
2022/02/20 06:10:04;;;;;;;3.35;1.30;;;;;;;;;;5054850;28;20155;-64
2022/02/20 06:12:30;;;;;;;3.55;1.20;;;;;;;;;;5054709;28;20052;-63
2022/02/20 06:14:56;;;;;;;2.88;1.08;;;;;;;;;;5054754;28;20032;-63
2022/02/20 06:17:22;;;;;;;2.85;0.80;;;;;;;;;;5054885;28;20021;-63
2022/02/20 06:19:48;;;;;;;2.50;0.98;;;;;;;;;;5054857;28;20105;-63
2022/02/20 06:22:14;;;;;;;4.05;1.00;;;;;;;;;;5054858;28;20513;-63
2022/02/20 06:24:40;;;;;;;2.33;1.08;;;;;;;;;;5054770;28;20479;-63
2022/02/20 06:27:06;;;;;;;3.70;1.17;;;;;;;;;;5054587;28;20475;-63
2022/02/20 06:29:32;;;;;;;3.05;1.02;;;;;;;;;;5054406;28;20028;-62
2022/02/20 06:31:59;;;;;;;3.78;1.20;;;;;;;;;;5054580;28;20028;-63
2022/02/20 06:34:25;;;;;;;3.17;0.93;;;;;;;;;;5054815;28;20041;-63
2022/02/20 06:36:52;;;;;;;3.53;0.93;;;;;;;;;;5054971;28;20025;-63
2022/02/20 06:39:18;;;;;;;2.78;1.02;;;;;;;;;;5054731;28;20021;-62
2022/02/20 06:41:44;;;;;;;2.53;0.90;;;;;;;;;;5054552;28;20123;-63
2022/02/20 06:44:10;;;;;;;3.28;0.93;;;;;;;;;;5054637;28;20028;-62
2022/02/20 06:46:37;;;;;;;1.80;0.90;;;;;;;;;;5054404;28;20029;-62
2022/02/20 06:49:04;;;;;;;1.85;0.70;;;;;;;;;;5054348;28;20029;-62
2022/02/20 06:51:30;;;;;;;2.47;0.90;;;;;;;;;;5054555;28;20464;-63
2022/02/20 06:53:56;;;;;;;3.50;0.90;;;;;;;;;;5054415;28;20523;-62
2022/02/20 06:56:22;;;;;;;1.95;0.80;;;;;;;;;;5054369;28;20479;-62
2022/02/20 06:58:48;;;;;;;5.25;0.95;;;;;;;;;;5054101;28;20029;-61
2022/02/20 07:01:14;;;;;;;2.85;1.10;;;;;;;;;;5043644;28;20061;-63
2022/02/20 07:03:40;;;;;;;6.72;0.98;;;;;;;;;;5039766;28;20023;-63
2022/02/20 07:06:08;;;;;;;2.45;0.85;;;;;;;;;;5034158;28;20029;-63
2022/02/20 07:08:34;;;;;;;5.75;0.80;;;;;;;;;;5034152;28;20026;-63
2022/02/20 07:11:00;;;;;;;3.10;0.90;;;;;;;;;;5034050;28;20439;-63
2022/02/20 07:13:26;;;;;;;1.88;0.73;;;;;;;;;;5033665;28;20041;-63
2022/02/20 07:15:52;;;;;;;2.65;0.65;;;;;;;;;;5033528;28;20480;-63
2022/02/20 07:18:19;;;;;;;3.40;0.90;;;;;;;;;;5033508;28;20139;-63
2022/02/20 07:20:45;;;;;;;2.38;0.80;;;;;;;;;;5033849;28;20032;-63
2022/02/20 07:23:11;;;;;;;1.95;0.80;;;;;;;;;;5033730;28;20025;-63
2022/02/20 07:25:38;;;;;;;4.45;0.85;;;;;;;;;;5033980;28;20052;-63
2022/02/20 07:28:04;;;;;;;2.40;0.70;;;;;;;;;;5033795;28;20025;-63
2022/02/20 07:30:30;;;;;;;2.83;0.90;;;;;;;;;;5033488;28;20040;-63
2022/02/20 07:32:57;;;;;;;1.75;0.70;;;;;;;;;;5033497;28;20029;-63
2022/02/20 07:35:23;;;;;;;1.92;0.73;;;;;;;;;;5033610;28;20049;-63
2022/02/20 07:37:49;;;;;;;2.67;0.68;;;;;;;;;;5015894;28;20425;-63
2022/02/20 07:40:16;;;;;;;2.17;0.70;;;;;;;;;;5033398;28;20030;-62
2022/02/20 07:42:42;;;;;;;1.90;0.70;;;;;;;;;;5033220;28;20021;-63
2022/02/20 07:45:09;;;;;;;2.58;0.70;;;;;;;;;;5033245;28;20029;-62
2022/02/20 07:47:49;;;;;;;3.53;1.00;;;;;;;;;;5015332;28;20036;-63
2022/02/20 07:50:16;;;;;;;3.20;0.70;;;;;;;;;;5033403;28;20025;-63
2022/02/20 07:52:42;;;;;;;2.88;0.90;;;;;;;;;;5033489;28;20021;-63
2022/02/20 07:55:08;;;;;;;2.40;0.77;;;;;;;;;;5033317;28;20018;-63
2022/02/20 07:57:34;;;;;;;3.28;0.80;;;;;;;;;;5033191;28;20056;-63
2022/02/20 08:00:03;;;;;;;1.52;0.60;;;;;;;;;;5033052;28;20025;-63
2022/02/20 08:02:29;;;;;;;2.00;0.95;;;;;;;;;;5032930;28;20099;-63
2022/02/20 08:04:55;;;;;;;2.35;0.80;;;;;;;;;;5033106;28;20025;-63
2022/02/20 08:07:21;;;;;;;1.98;0.85;;;;;;;;;;5032812;28;20029;-62
2022/02/20 08:09:47;;;;;;;3.83;0.70;;;;;;;;;;5033027;28;20021;-62
2022/02/20 08:12:13;;;;;;;3.30;0.90;;;;;;;;;;5032973;28;20025;-64
2022/02/20 08:14:39;;;;;;;2.20;0.90;;;;;;;;;;5033267;28;20522;-64
2022/02/20 08:17:05;;;;;;;2.60;0.82;;;;;;;;;;5033030;28;20408;-63
2022/02/20 08:19:31;;;;;;;3.20;0.98;;;;;;;;;;5032815;28;20095;-63
2022/02/20 08:21:57;;;;;;;1.65;0.70;;;;;;;;;;5032660;28;20062;-63
2022/02/20 08:24:26;;;;;;;3.45;1.00;;;;;;;;;;5032736;28;20022;-65
2022/02/20 08:26:55;;;;;;;1.60;0.53;;;;;;;;;;5034686;28;20029;-64
2022/02/20 08:29:21;;;;;;;3.15;1.20;;;;;;;;;;5048628;28;20044;-62
2022/02/20 08:31:48;;;;;;;2.75;1.10;;;;;;;;;;5052049;28;20486;-62
2022/02/20 08:34:14;;;;;;;2.53;0.95;;;;;;;;;;5051947;28;20029;-62
2022/02/20 08:36:40;;;;;;;3.42;1.00;;;;;;;;;;5051952;28;20673;-62
2022/02/20 08:39:06;;;;;;;2.90;0.98;;;;;;;;;;5024174;28;20029;-62
2022/02/20 08:41:35;;;;;;;5.88;1.10;;;;;;;;;;5031723;28;20073;-62
2022/02/20 08:44:01;;;;;;;2.53;0.85;;;;;;;;;;5036674;28;20016;-62
2022/02/20 08:46:27;;;;;;;3.20;0.90;;;;;;;;;;5051845;28;20059;-62
2022/02/20 08:48:53;;;;;;;3.47;1.00;;;;;;;;;;5052131;28;20053;-62
2022/02/20 08:51:19;;;;;;;2.28;0.90;;;;;;;;;;5052054;28;20025;-62
2022/02/20 08:53:47;;;;;;;3.67;1.05;;;;;;;;;;5051549;28;20017;-62
2022/02/20 08:56:13;;;;;;;5.03;1.10;;;;;;;;;;5051577;28;20497;-62
2022/02/20 08:58:39;;;;;;;4.20;1.45;;;;;;;;;;5051583;28;20025;-62
2022/02/20 09:01:06;;;;;;;3.00;0.95;;;;;;;;;;5051312;28;20128;-63
2022/02/20 09:03:32;;;;;;;5.95;1.05;;;;;;;;;;5051616;28;20025;-63
2022/02/20 09:05:58;;;;;;;2.55;1.00;;;;;;;;;;5051968;28;20479;-64
2022/02/20 09:08:24;;;;;;;2.20;0.85;;;;;;;;;;5051795;28;20103;-62
2022/02/20 09:10:51;;;;;;;6.80;1.00;;;;;;;;;;5051555;28;20028;-62
2022/02/20 09:13:17;;;;;;;2.47;1.00;;;;;;;;;;5051405;28;20044;-62
2022/02/20 09:15:43;;;;;;;2.65;0.80;;;;;;;;;;5051615;28;20372;-62
2022/02/20 09:18:10;;;;;;;3.00;1.20;;;;;;;;;;5051451;28;20107;-62
2022/02/20 09:20:36;;;;;;;2.92;0.90;;;;;;;;;;5045789;28;20030;-64
2022/02/20 09:23:03;;;;;;;2.35;1.00;;;;;;;;;;5031526;28;20037;-62
2022/02/20 09:25:29;;;;;;;3.45;1.05;;;;;;;;;;5031336;28;20021;-61
2022/02/20 09:27:55;;;;;;;2.67;1.10;;;;;;;;;;5031375;28;20090;-62
2022/02/20 09:30:21;;;;;;;6.03;1.35;;;;;;;;;;5031345;28;20021;-62
2022/02/20 09:32:47;;;;;;;4.30;1.15;;;;;;;;;;5031404;28;20022;-62
2022/02/20 09:35:14;;;;;;;2.25;1.05;;;;;;;;;;5031343;28;20021;-62
2022/02/20 09:37:40;;;;;;;4.10;1.33;;;;;;;;;;5031356;28;20031;-62
2022/02/20 09:40:07;;;;;;;1.92;0.73;;;;;;;;;;5040214;28;20017;-63
2022/02/20 09:42:33;;;;;;;3.92;0.90;;;;;;;;;;5053117;28;20095;-63
2022/02/20 09:44:59;;;;;;;5.05;1.02;;;;;;;;;;5053327;28;20021;-63
2022/02/20 09:47:27;;;;;;;3.35;1.00;;;;;;;;;;5054353;28;20032;-63
2022/02/20 09:49:57;;;;;;;4.72;1.23;;;;;;;;;;5055387;28;20066;-63
2022/02/20 09:52:23;;;;;;;2.95;0.98;;;;;;;;;;5055453;28;20025;-63
2022/02/20 09:54:49;;;;;;;5.45;1.17;;;;;;;;;;5055207;28;20021;-64
2022/02/20 09:57:15;;;;;;;4.60;0.70;;;;;;;;;;5055009;28;20025;-62
2022/02/20 09:59:41;;;;;;;5.97;1.08;;;;;;;;;;5055234;28;20401;-63
2022/02/20 10:02:13;;;;;;;2.53;0.95;;;;;;;;;;5055308;28;20415;-63
2022/02/20 10:04:43;;;;;;;3.35;1.02;;;;;;;;;;5055398;28;20018;-63
2022/02/20 10:07:25;;;;;;;5.32;0.90;;;;;;;;;;5055105;28;20025;-64
2022/02/20 10:09:52;;;;;;;3.60;0.80;;;;;;;;;;5055250;28;20009;-64
2022/02/20 10:12:19;;;;;;;2.80;1.20;;;;;;;;;;5044997;28;20357;-64
2022/02/20 10:14:45;;;;;;;4.10;1.00;;;;;;;;;;5034849;28;20045;-63
2022/02/20 10:17:13;;;;;;;6.57;1.02;;;;;;;;;;5034908;28;20558;-67
2022/02/20 10:19:51;;;;;;;2.28;1.02;;;;;;;;;;5033708;28;20077;-62
2022/02/20 10:22:34;;;;;;;3.03;1.00;;;;;;;;;;5034721;28;20038;-62
2022/02/20 10:25:05;;;;;;;6.78;1.20;;;;;;;;;;5034917;28;20032;-63
2022/02/20 10:27:31;;;;;;;3.22;0.82;;;;;;;;;;5034675;28;20029;-62
2022/02/20 10:30:10;;;;;;;3.80;1.10;;;;;;;;;;5038648;28;20025;-63
2022/02/20 10:32:36;;;;;;;3.03;0.98;;;;;;;;;;5034501;28;20021;-63
2022/02/20 10:35:09;;;;;;;2.70;1.05;;;;;;;;;;5034774;28;20029;-62
2022/02/20 10:37:35;;;;;;;3.22;0.70;;;;;;;;;;5034908;28;20204;-63
2022/02/20 10:40:01;;;;;;;3.03;1.00;;;;;;;;;;5034883;28;20028;-64
2022/02/20 10:42:27;;;;;;;3.40;1.10;;;;;;;;;;5034602;28;20124;-62
2022/02/20 10:45:01;;;;;;;5.70;1.35;;;;;;;;;;5034540;28;20035;-64
2022/02/20 10:47:31;;;;;;;5.18;0.90;;;;;;;;;;5035298;28;20109;-63
2022/02/20 10:50:14;;;;;;;3.45;0.95;;;;;;;;;;5053406;28;20028;-64
2022/02/20 10:52:40;;;;;;;3.42;0.95;;;;;;;;;;5053917;28;20074;-63
2022/02/20 10:55:08;;;;;;;2.03;0.88;;;;;;;;;;5054173;28;20029;-63
2022/02/20 10:57:35;;;;;;;4.82;1.20;;;;;;;;;;5054078;28;20029;-64
2022/02/20 11:00:11;;;;;;;2.33;1.00;;;;;;;;;;5054345;28;20224;-67
2022/02/20 11:02:37;;;;;;;2.28;0.93;;;;;;;;;;5054109;28;20033;-64
2022/02/20 11:05:03;;;;;;;2.75;1.00;;;;;;;;;;5054149;28;20029;-64
2022/02/20 11:07:29;;;;;;;4.25;1.10;;;;;;;;;;5036037;28;20102;-64
2022/02/20 11:09:55;;;;;;;3.13;1.10;;;;;;;;;;5054244;28;20430;-64
2022/02/20 11:12:21;;;;;;;3.28;1.10;;;;;;;;;;5052616;28;20363;-64
2022/02/20 11:14:49;;;;;;;3.30;0.95;;;;;;;;;;5052782;28;20029;-63
2022/02/20 11:17:16;;;;;;;3.42;1.35;;;;;;;;;;5053813;28;20051;-63
2022/02/20 11:19:43;;;;;;;1.90;0.80;;;;;;;;;;5053821;28;20100;-64
2022/02/20 11:22:10;;;;;;;3.55;1.10;;;;;;;;;;5053676;28;20037;-63
2022/02/20 11:24:37;;;;;;;3.40;1.20;;;;;;;;;;5035732;28;20021;-64
2022/02/20 11:27:04;;;;;;;2.45;1.10;;;;;;;;;;5053656;28;20438;-64
2022/02/20 11:29:31;;;;;;;2.08;0.90;;;;;;;;;;5053733;28;20399;-64
2022/02/20 11:31:58;;;;;;;3.15;1.00;;;;;;;;;;5053907;28;20100;-64
2022/02/20 11:34:25;;;;;;;1.85;0.90;;;;;;;;;;5053786;28;20025;-63
2022/02/20 11:36:58;;;;;;;3.35;1.15;;;;;;;;;;5053521;28;20111;-64
2022/02/20 11:39:25;;;;;;;2.33;0.98;;;;;;;;;;5035660;28;20368;-64
2022/02/20 11:42:15;;;;;;;2.58;1.05;;;;;;;;;;5050997;28;20116;-64
2022/02/20 11:44:50;;;;;;;1.75;0.77;;;;;;;;;;5053676;28;20040;-64
2022/02/20 11:47:35;;;;;;;2.55;0.85;;;;;;;;;;5053596;28;20027;-64
2022/02/20 11:50:16;;;;;;;2.47;0.80;;;;;;;;;;5053402;28;20025;-63
2022/02/20 11:53:02;;;;;;;2.35;0.85;;;;;;;;;;5035118;28;20055;-63
2022/02/20 11:55:32;;;;;;;2.95;1.00;;;;;;;;;;5053005;28;20025;-63
2022/02/20 11:58:21;;;;;;;2.70;1.00;;;;;;;;;;5053361;28;20029;-64
2022/02/20 12:00:56;;;;;;;2.58;1.00;;;;;;;;;;5053094;28;20078;-63
2022/02/20 12:03:26;;;;;;;1.90;0.70;;;;;;;;;;5049908;28;20028;-63
2022/02/20 12:06:10;;;;;;;1.77;0.80;;;;;;;;;;5052873;28;20082;-64
2022/02/20 12:08:38;;;;;;;1.45;0.75;;;;;;;;;;5052722;28;20013;-63
2022/02/20 12:11:16;;;;;;;1.95;0.70;;;;;;;;;;5052942;28;20021;-64
2022/02/20 12:13:49;;;;;;;2.80;0.93;;;;;;;;;;5052832;28;20040;-64
2022/02/20 12:16:20;;;;;;;1.25;0.70;;;;;;;;;;5053056;28;20056;-64
2022/02/20 12:19:04;;;;;;;2.53;0.95;;;;;;;;;;5050224;28;20014;-63
2022/02/20 12:21:34;;;;;;;2.28;0.85;;;;;;;;;;5052739;28;20093;-64
2022/02/20 12:24:14;;;;;;;1.92;0.88;;;;;;;;;;5052818;28;20025;-63
2022/02/20 12:26:45;;;;;;;2.17;0.88;;;;;;;;;;5052359;28;20396;-64
2022/02/20 12:29:13;;;;;;;2.08;0.85;;;;;;;;;;5052524;28;20472;-64
2022/02/20 12:31:58;;;;;;;2.30;0.73;;;;;;;;;;5052232;28;20375;-64
2022/02/20 12:34:59;;;;;;;2.10;0.90;;;;;;;;;;5052599;28;20108;-64
2022/02/20 12:37:34;;;;;;;4.28;0.98;;;;;;;;;;4971115;28;20038;-64
2022/02/20 12:40:05;;;;;;;1.48;0.70;;;;;;;;;;5041021;28;20045;-64
2022/02/20 12:42:32;;;;;;;1.45;0.70;;;;;;;;;;5049891;28;20058;-64
2022/02/20 12:45:03;;;;;;;1.75;0.60;;;;;;;;;;5052311;28;20021;-64
2022/02/20 12:47:34;;;;;;;2.15;0.73;;;;;;;;;;5052202;28;20099;-64
2022/02/20 12:50:00;;;;;;;1.50;0.50;;;;;;;;;;5033813;28;20025;-64
2022/02/20 12:52:31;;;;;;;2.33;0.73;;;;;;;;;;5051957;28;20075;-64
2022/02/20 12:54:57;;;;;;;2.15;0.75;;;;;;;;;;5052324;28;20019;-63
2022/02/20 12:57:25;;;;;;;2.65;0.90;;;;;;;;;;5052305;28;20100;-63
2022/02/20 12:59:59;;;;;;;3.83;1.10;;;;;;;;;;5052097;28;20031;-63
2022/02/20 13:02:43;;;;;;;1.95;0.80;;;;;;;;;;5052142;28;20472;-63
2022/02/20 13:05:20;;;;;;;2.28;0.80;;;;;;;;;;5052174;28;20021;-63
2022/02/20 13:07:46;;;;;;;2.60;0.93;;;;;;;;;;5052107;28;20032;-63
2022/02/20 13:10:17;;;;;;;2.97;0.90;;;;;;;;;;5051888;28;20108;-64
2022/02/20 13:13:03;;;;;;;1.92;0.70;;;;;;;;;;5051695;28;20041;-63
2022/02/20 13:15:31;;;;;;;1.83;0.80;;;;;;;;;;5055556;28;20028;-63
2022/02/20 13:18:03;;;;;;;2.08;0.77;;;;;;;;;;5058549;28;20438;-62
2022/02/20 13:20:37;;;;;;;2.08;0.70;;;;;;;;;;5058615;28;20115;-63
2022/02/20 13:23:14;;;;;;;1.20;0.65;;;;;;;;;;5058725;28;20035;-63
2022/02/20 13:25:40;;;;;;;2.40;1.00;;;;;;;;;;5058527;28;20025;-63
2022/02/20 13:28:07;;;;;;;2.58;0.80;;;;;;;;;;5058521;28;20021;-63
2022/02/20 13:30:35;;;;;;;2.58;0.90;;;;;;;;;;5058253;28;20024;-63
2022/02/20 13:33:13;;;;;;;1.35;0.65;;;;;;;;;;5058422;28;20033;-63
2022/02/20 13:35:40;;;;;;;2.55;0.90;;;;;;;;;;5040672;28;20013;-63
2022/02/20 13:38:08;;;;;;;1.55;0.75;;;;;;;;;;5058329;28;20021;-63
2022/02/20 13:40:38;;;;;;;1.55;0.70;;;;;;;;;;5058170;28;20353;-65
2022/02/20 13:43:06;;;;;;;1.27;0.65;;;;;;;;;;5055870;28;20032;-63
2022/02/20 13:45:32;;;;;;;2.20;0.70;;;;;;;;;;5058436;28;20032;-64
2022/02/20 13:47:58;;;;;;;2.30;0.82;;;;;;;;;;5058465;28;20044;-64
2022/02/20 13:50:24;;;;;;;1.65;0.60;;;;;;;;;;5058323;28;20044;-63
2022/02/20 13:52:51;;;;;;;1.02;0.60;;;;;;;;;;5058498;28;20033;-64
2022/02/20 13:55:22;;;;;;;1.70;0.70;;;;;;;;;;5040340;28;20017;-64
2022/02/20 13:57:49;;;;;;;1.98;0.70;;;;;;;;;;5057996;28;20033;-63
2022/02/20 14:00:15;;;;;;;2.80;0.90;;;;;;;;;;5058126;28;20494;-64
2022/02/20 14:02:43;;;;;;;1.92;0.80;;;;;;;;;;5058107;28;20044;-63
2022/02/20 14:05:17;;;;;;;1.02;0.52;;;;;;;;;;5058402;28;20055;-63
2022/02/20 14:07:43;;;;;;;2.15;0.90;;;;;;;;;;5058240;28;20029;-64
2022/02/20 14:10:11;;;;;;;3.50;0.93;;;;;;;;;;5058060;28;20032;-64
2022/02/20 14:12:41;;;;;;;1.48;0.60;;;;;;;;;;5040054;28;20045;-63
2022/02/20 14:15:18;;;;;;;1.15;0.60;;;;;;;;;;5039938;28;20021;-63
2022/02/20 14:17:47;;;;;;;1.63;0.70;;;;;;;;;;5058013;28;20021;-63
2022/02/20 14:20:14;;;;;;;1.73;0.65;;;;;;;;;;5057922;28;20017;-64
2022/02/20 14:22:40;;;;;;;2.53;0.88;;;;;;;;;;5057994;28;20506;-64
2022/02/20 14:25:07;;;;;;;1.15;0.60;;;;;;;;;;5057902;28;20078;-63
2022/02/20 14:27:34;;;;;;;1.63;0.60;;;;;;;;;;5049794;28;20393;-64
2022/02/20 14:30:01;;;;;;;2.05;0.70;;;;;;;;;;5033410;28;20033;-63
2022/02/20 14:32:29;;;;;;;3.22;0.65;;;;;;;;;;5034610;28;20021;-63
2022/02/20 14:34:55;;;;;;;2.10;0.70;;;;;;;;;;5034678;28;20049;-63
2022/02/20 14:37:32;;;;;;;3.03;0.75;;;;;;;;;;5034740;28;20515;-63
2022/02/20 14:39:58;;;;;;;0.55;0.30;;;;;;;;;;5034502;28;20388;-63
2022/02/20 14:42:24;;;;;;;1.90;0.50;;;;;;;;;;5034483;28;20043;-63
2022/02/20 14:44:50;;;;;;;2.30;0.63;;;;;;;;;;5034670;28;20029;-63
2022/02/20 14:47:16;;;;;;;1.95;0.60;;;;;;;;;;5034403;28;20029;-64